Lovington, New Mexico
Current Conditions -  °F | °C
As of 10:50 AM on Monday 24 Nov 2014 (Local Time) from KHOB Reporting Station
Clear Clear  
Wind Chill: 50°   Ceiling: Unl
Heat Index: 50°   Visibility: 10mi
Dew Point:   Wind: 16mph
Humidity: 19%   Direction: 300°WNW
Pressure: 30.09"   Gusts: 23mph
Location:  32.94°N, 103.34°W
Report Text: KHOB 241750Z 30014G20KT 10SM SKC 10/M13 A3009
Loading
Personal Weather Stations






























Interactive Weather Map New forecast layout! Learn more

10-Day Weather Forecast

Advertisements
Track Severe Weather on mobile